Time;durP1;ratioP1;P1;durP2;ratioP2;P2;SDS_P1;SDS_P2;PMS_P1;PMS_P2;Temp;Humidity;BMP_temperature;BMP_pressure;BME280_temperature;BME280_humidity;BME280_pressure;Samples;Min_cycle;Max_cycle;Signal;HPM_P1;HPM_P2
2021/04/28 00:00:34;;;;;;;4.63;2.65;;;10.30;38.20;;;;;;5037912;28;20080;-64
2021/04/28 00:03:05;;;;;;;5.25;2.58;;;10.30;38.40;;;;;;5047521;28;20032;-64
2021/04/28 00:05:33;;;;;;;4.35;2.67;;;10.30;38.60;;;;;;5037455;28;20067;-64
2021/04/28 00:07:59;;;;;;;7.20;2.20;;;10.20;38.70;;;;;;5044642;28;20478;-64
2021/04/28 00:10:37;;;;;;;5.28;2.50;;;10.20;38.80;;;;;;5012926;28;20047;-64
2021/04/28 00:13:05;;;;;;;13.65;2.70;;;10.20;38.90;;;;;;5038975;28;20187;-64
2021/04/28 00:15:38;;;;;;;2.38;2.00;;;10.10;39.00;;;;;;5041815;28;21520;-64
2021/04/28 00:18:04;;;;;;;5.80;2.40;;;10.10;39.20;;;;;;5039649;28;20101;-64
2021/04/28 00:20:41;;;;;;;5.47;2.40;;;10.10;39.30;;;;;;5038019;28;20584;-64
2021/04/28 00:23:10;;;;;;;6.57;2.60;;;10.10;39.50;;;;;;5047546;28;20552;-64
2021/04/28 00:25:38;;;;;;;11.38;3.20;;;10.00;39.60;;;;;;5042553;28;21167;-64
2021/04/28 00:28:04;;;;;;;5.05;2.72;;;10.00;39.90;;;;;;5038826;28;20040;-64
2021/04/28 00:30:37;;;;;;;8.80;2.85;;;10.00;40.00;;;;;;5041272;28;20145;-64
2021/04/28 00:33:05;;;;;;;6.03;2.78;;;10.00;40.10;;;;;;5045263;28;20055;-64
2021/04/28 00:35:31;;;;;;;8.27;3.15;;;10.00;40.10;;;;;;5047220;28;20511;-64
2021/04/28 00:38:04;;;;;;;6.50;2.67;;;9.90;40.20;;;;;;5023064;28;20614;-64
2021/04/28 00:40:39;;;;;;;7.72;2.42;;;9.90;40.30;;;;;;5043817;28;20049;-65
2021/04/28 00:43:05;;;;;;;4.38;2.47;;;9.90;40.30;;;;;;5038619;28;20116;-64
2021/04/28 00:45:35;;;;;;;5.60;2.65;;;9.90;40.50;;;;;;5043512;28;20039;-64
2021/04/28 00:48:06;;;;;;;4.07;2.75;;;9.90;40.70;;;;;;5042048;28;20036;-64
2021/04/28 00:50:37;;;;;;;4.80;2.65;;;9.90;40.90;;;;;;5039002;28;20077;-64
2021/04/28 00:53:05;;;;;;;5.57;2.60;;;9.80;41.00;;;;;;5024070;28;20033;-64
2021/04/28 00:55:31;;;;;;;4.60;2.67;;;9.80;41.00;;;;;;5042246;28;20647;-64
2021/04/28 00:58:00;;;;;;;5.22;2.88;;;9.80;41.00;;;;;;5042900;28;20758;-64
2021/04/28 01:00:26;;;;;;;3.60;2.70;;;9.80;41.30;;;;;;5044686;28;20234;-64
2021/04/28 01:02:55;;;;;;;6.47;2.85;;;9.80;41.30;;;;;;5021391;28;20405;-64
2021/04/28 01:05:23;;;;;;;5.28;3.08;;;9.70;41.40;;;;;;5045543;28;20044;-64
2021/04/28 01:07:52;;;;;;;11.20;3.20;;;9.70;41.50;;;;;;5045805;28;20063;-64
2021/04/28 01:10:26;;;;;;;3.63;2.78;;;9.70;41.60;;;;;;5043200;28;20036;-64
2021/04/28 01:12:55;;;;;;;8.38;2.75;;;9.70;41.70;;;;;;5053898;28;20506;-64
2021/04/28 01:15:25;;;;;;;7.85;2.90;;;9.70;41.70;;;;;;5047581;28;20978;-65
2021/04/28 01:17:56;;;;;;;4.00;2.70;;;9.60;41.70;;;;;;5029305;28;20051;-64
2021/04/28 01:20:24;;;;;;;5.35;3.10;;;9.60;41.90;;;;;;5049348;28;20086;-64
2021/04/28 01:22:50;;;;;;;5.35;3.05;;;9.60;41.90;;;;;;5040950;28;20432;-64
2021/04/28 01:25:21;;;;;;;5.70;3.17;;;9.60;42.00;;;;;;5040433;28;20055;-64
2021/04/28 01:28:09;;;;;;;6.65;2.90;;;9.60;42.10;;;;;;5048111;28;20117;-64
2021/04/28 01:30:49;;;;;;;5.18;2.95;;;9.50;42.10;;;;;;5023439;28;20028;-64
2021/04/28 01:33:32;;;;;;;5.80;3.13;;;9.50;42.10;;;;;;5039473;28;20096;-64
2021/04/28 01:36:01;;;;;;;7.68;2.65;;;9.50;42.20;;;;;;5038052;28;20032;-64
2021/04/28 01:38:35;;;;;;;6.38;3.10;;;9.50;42.30;;;;;;5045044;28;20035;-64
2021/04/28 01:41:01;;;;;;;6.43;3.35;;;9.50;42.30;;;;;;5046413;28;20036;-64
2021/04/28 01:43:31;;;;;;;8.40;2.83;;;9.50;42.30;;;;;;5043872;28;20039;-64
2021/04/28 01:45:57;;;;;;;5.57;3.00;;;9.40;42.40;;;;;;5043192;28;20062;-64
2021/04/28 01:48:23;;;;;;;10.43;2.92;;;9.40;42.50;;;;;;5034137;28;20032;-64
2021/04/28 01:50:52;;;;;;;7.30;3.15;;;9.40;42.50;;;;;;5029514;28;20036;-64
2021/04/28 01:53:25;;;;;;;7.35;3.13;;;9.40;42.60;;;;;;5046973;28;20056;-64
2021/04/28 01:55:57;;;;;;;5.93;2.60;;;9.40;42.70;;;;;;5047523;28;20058;-64
2021/04/28 01:58:24;;;;;;;4.53;3.22;;;9.40;42.70;;;;;;5027523;28;20055;-64
2021/04/28 02:00:53;;;;;;;6.30;3.13;;;9.40;42.80;;;;;;5043069;28;20044;-64
2021/04/28 02:03:26;;;;;;;4.88;3.15;;;9.30;42.80;;;;;;5044490;28;20040;-63
2021/04/28 02:05:54;;;;;;;6.75;3.25;;;9.30;42.80;;;;;;5045198;28;20043;-64
2021/04/28 02:08:25;;;;;;;7.43;3.20;;;9.30;42.80;;;;;;5041485;28;20044;-63
2021/04/28 02:10:50;;;;;;;6.13;3.15;;;9.30;42.90;;;;;;5050655;28;20406;-64
2021/04/28 02:13:19;;;;;;;3.38;2.83;;;9.30;43.00;;;;;;5040939;28;20110;-64
2021/04/28 02:15:46;;;;;;;5.20;3.13;;;9.30;43.10;;;;;;5045786;28;20501;-64
2021/04/28 02:18:16;;;;;;;5.85;3.15;;;9.20;43.10;;;;;;5048450;28;20035;-64
2021/04/28 02:20:46;;;;;;;5.47;3.17;;;9.20;43.10;;;;;;5048745;28;20421;-64
2021/04/28 02:23:13;;;;;;;6.95;2.70;;;9.20;43.20;;;;;;5050569;28;20135;-64
2021/04/28 02:25:41;;;;;;;6.72;3.05;;;9.20;43.20;;;;;;5046112;28;20036;-64
2021/04/28 02:28:07;;;;;;;5.78;3.28;;;9.10;43.20;;;;;;5024801;28;20490;-64
2021/04/28 02:30:36;;;;;;;4.20;2.80;;;9.10;43.30;;;;;;5041801;28;20066;-64
2021/04/28 02:33:09;;;;;;;4.70;3.33;;;9.10;43.30;;;;;;5043515;28;20501;-64
2021/04/28 02:35:37;;;;;;;6.32;3.15;;;9.10;43.40;;;;;;5045423;28;20118;-64
2021/04/28 02:38:15;;;;;;;5.28;3.03;;;9.10;43.40;;;;;;5044185;28;20113;-64
2021/04/28 02:40:41;;;;;;;6.18;3.40;;;9.10;43.50;;;;;;5052250;28;20031;-64
2021/04/28 02:43:13;;;;;;;8.60;3.17;;;9.00;43.40;;;;;;5046591;28;20044;-64
2021/04/28 02:45:42;;;;;;;7.78;3.50;;;9.00;43.60;;;;;;5025326;28;20048;-64
2021/04/28 02:48:14;;;;;;;6.63;3.50;;;9.00;43.60;;;;;;5047203;28;20118;-64
2021/04/28 02:50:41;;;;;;;7.43;3.13;;;8.90;43.70;;;;;;5041233;28;20048;-64
2021/04/28 02:53:09;;;;;;;9.35;3.30;;;8.90;43.70;;;;;;5047350;28;20036;-64
2021/04/28 02:55:37;;;;;;;7.38;3.17;;;8.90;43.80;;;;;;5036835;28;20040;-64
2021/04/28 02:58:03;;;;;;;4.72;3.20;;;8.90;43.80;;;;;;5044138;28;20127;-64
2021/04/28 03:00:34;;;;;;;5.22;3.20;;;8.90;43.90;;;;;;5043279;28;20033;-63
2021/04/28 03:02:59;;;;;;;5.85;3.30;;;8.80;43.90;;;;;;5043359;28;20089;-64
2021/04/28 03:05:27;;;;;;;6.97;3.80;;;8.80;44.00;;;;;;5043044;28;20513;-64
2021/04/28 03:07:56;;;;;;;4.55;3.08;;;8.80;44.00;;;;;;5025929;28;20062;-64
2021/04/28 03:10:22;;;;;;;5.22;3.28;;;8.80;44.10;;;;;;5046247;28;20129;-64
2021/04/28 03:12:49;;;;;;;6.32;3.10;;;8.80;44.10;;;;;;5042280;28;20442;-64
2021/04/28 03:15:20;;;;;;;4.60;3.15;;;8.70;44.20;;;;;;5046558;28;20040;-64
2021/04/28 03:17:47;;;;;;;5.13;3.10;;;8.80;44.40;;;;;;5049365;28;20036;-64
2021/04/28 03:20:14;;;;;;;6.13;3.47;;;8.70;44.20;;;;;;5038936;28;20028;-64
2021/04/28 03:22:44;;;;;;;5.90;3.60;;;8.70;44.30;;;;;;5045689;28;20032;-63
2021/04/28 03:25:15;;;;;;;6.03;3.25;;;8.70;44.30;;;;;;5046805;28;20110;-64
2021/04/28 03:27:41;;;;;;;7.50;3.03;;;8.70;44.30;;;;;;5045060;28;20042;-64
2021/04/28 03:30:07;;;;;;;5.32;3.30;;;8.70;44.30;;;;;;5030105;28;20708;-63
2021/04/28 03:32:33;;;;;;;6.13;3.50;;;8.70;44.30;;;;;;5019489;28;20043;-63
2021/04/28 03:34:59;;;;;;;5.32;3.03;;;8.70;44.40;;;;;;5019060;28;20040;-63
2021/04/28 03:37:24;;;;;;;5.47;3.15;;;8.70;44.40;;;;;;5022422;28;20123;-63
2021/04/28 03:39:50;;;;;;;4.82;3.03;;;8.70;44.40;;;;;;5040559;28;20122;-63
2021/04/28 03:42:18;;;;;;;5.80;3.65;;;8.70;44.40;;;;;;5022628;28;20498;-64
2021/04/28 03:44:44;;;;;;;4.72;3.42;;;8.60;44.50;;;;;;5005982;28;22591;-64
2021/04/28 03:47:12;;;;;;;8.23;3.85;;;8.60;44.50;;;;;;5029654;28;20065;-64
2021/04/28 03:49:40;;;;;;;6.40;3.20;;;8.60;44.40;;;;;;5028217;28;20090;-64
2021/04/28 03:52:10;;;;;;;7.57;3.60;;;8.60;44.50;;;;;;5042474;28;20051;-64
2021/04/28 03:54:41;;;;;;;6.95;3.30;;;8.60;44.40;;;;;;5039848;28;21344;-64
2021/04/28 03:57:10;;;;;;;7.95;3.50;;;8.60;44.50;;;;;;5043375;28;20085;-64
2021/04/28 03:59:35;;;;;;;7.90;3.88;;;8.50;44.50;;;;;;5027530;28;20412;-63
2021/04/28 04:02:04;;;;;;;7.13;3.63;;;8.50;44.50;;;;;;5046993;28;20036;-63
2021/04/28 04:04:30;;;;;;;4.90;3.35;;;8.60;44.70;;;;;;5044367;28;20167;-63
2021/04/28 04:06:55;;;;;;;5.38;3.47;;;8.50;44.60;;;;;;5044558;28;20039;-64
2021/04/28 04:09:21;;;;;;;7.43;3.35;;;8.50;44.70;;;;;;5038990;28;20096;-64
2021/04/28 04:11:48;;;;;;;5.13;3.22;;;8.50;44.70;;;;;;5049619;28;20046;-63
2021/04/28 04:14:16;;;;;;;5.70;3.45;;;8.50;44.70;;;;;;5043259;28;20047;-63
2021/04/28 04:16:44;;;;;;;4.95;3.20;;;8.50;44.80;;;;;;5039326;28;20151;-63
2021/04/28 04:19:10;;;;;;;6.80;3.40;;;8.50;44.70;;;;;;5045537;28;20043;-63
2021/04/28 04:21:39;;;;;;;8.52;3.55;;;8.50;44.70;;;;;;5046618;28;20474;-64
2021/04/28 04:24:05;;;;;;;7.72;3.47;;;8.50;44.70;;;;;;5037997;28;21015;-63
2021/04/28 04:26:35;;;;;;;9.27;3.92;;;8.50;44.80;;;;;;5022362;28;20044;-63
2021/04/28 04:29:02;;;;;;;4.07;3.20;;;8.50;44.70;;;;;;5037047;28;20628;-63
2021/04/28 04:31:30;;;;;;;8.70;3.55;;;8.60;44.70;;;;;;5029132;28;20494;-64
2021/04/28 04:33:56;;;;;;;4.63;3.40;;;8.60;44.80;;;;;;5039052;28;20941;-63
2021/04/28 04:36:23;;;;;;;6.45;3.53;;;8.60;44.80;;;;;;5041156;28;20428;-63
2021/04/28 04:38:51;;;;;;;9.40;4.25;;;8.60;44.80;;;;;;5047744;28;20079;-63
2021/04/28 04:41:19;;;;;;;5.28;3.33;;;8.60;44.80;;;;;;5052900;28;20039;-62
2021/04/28 04:43:45;;;;;;;8.30;3.60;;;8.60;44.70;;;;;;5049805;28;20039;-63
2021/04/28 04:46:11;;;;;;;5.97;3.60;;;8.60;44.70;;;;;;5043691;28;20036;-63
2021/04/28 04:48:39;;;;;;;9.20;3.78;;;8.70;44.70;;;;;;5051456;28;20638;-64
2021/04/28 04:51:04;;;;;;;7.03;3.95;;;8.70;45.20;;;;;;5074690;28;20668;-63
2021/04/28 04:53:32;;;;;;;6.68;3.78;;;8.80;44.60;;;;;;5074369;28;20123;-63
2021/04/28 04:56:00;;;;;;;7.50;3.72;;;8.90;44.50;;;;;;5075560;28;20039;-63
2021/04/28 04:58:30;;;;;;;7.30;3.88;;;8.90;44.40;;;;;;5076009;28;20055;-63
2021/04/28 05:00:58;;;;;;;9.15;3.55;;;9.00;44.40;;;;;;5075612;28;20117;-64
2021/04/28 05:03:24;;;;;;;5.28;3.47;;;9.00;44.40;;;;;;5061074;28;20562;-63
2021/04/28 05:05:50;;;;;;;6.95;3.42;;;9.00;44.20;;;;;;5063737;28;20795;-63
2021/04/28 05:08:17;;;;;;;5.47;3.65;;;9.10;44.10;;;;;;5078376;28;20413;-64
2021/04/28 05:10:43;;;;;;;6.18;3.38;;;9.30;44.10;;;;;;5077019;28;20043;-64
2021/04/28 05:13:11;;;;;;;5.82;3.40;;;9.40;43.80;;;;;;5067987;28;20032;-64
2021/04/28 05:15:41;;;;;;;6.97;3.60;;;9.50;43.50;;;;;;5078175;28;20153;-63
2021/04/28 05:18:09;;;;;;;11.55;3.78;;;9.60;43.30;;;;;;5075309;28;20041;-63
2021/04/28 05:20:35;;;;;;;5.60;3.60;;;9.60;43.20;;;;;;5058178;28;20501;-63
2021/04/28 05:23:03;;;;;;;6.90;3.88;;;9.80;43.20;;;;;;5062648;28;20033;-63
2021/04/28 05:25:28;;;;;;;6.00;3.65;;;9.90;43.00;;;;;;5054721;28;20032;-63
2021/04/28 05:27:56;;;;;;;7.88;4.28;;;9.90;42.70;;;;;;5051912;28;20510;-63
2021/04/28 05:30:24;;;;;;;5.45;3.55;;;10.00;42.60;;;;;;5061137;28;20086;-64
2021/04/28 05:32:50;;;;;;;5.75;3.80;;;10.20;42.70;;;;;;5053777;28;20062;-63
2021/04/28 05:35:18;;;;;;;9.20;4.00;;;10.30;42.70;;;;;;5056527;28;20450;-64
2021/04/28 05:37:44;;;;;;;4.15;3.08;;;10.40;42.10;;;;;;5046580;28;20044;-64
2021/04/28 05:40:10;;;;;;;8.57;3.78;;;10.50;41.80;;;;;;5035996;28;20135;-64
2021/04/28 05:42:37;;;;;;;5.82;3.40;;;10.60;41.70;;;;;;5040328;28;20060;-64
2021/04/28 05:45:10;;;;;;;5.55;3.60;;;10.80;41.70;;;;;;5038936;28;20067;-64
2021/04/28 05:47:36;;;;;;;7.03;3.47;;;11.70;41.40;;;;;;5041791;28;20059;-64
2021/04/28 05:50:05;;;;;;;4.82;3.00;;;12.60;40.20;;;;;;5039192;28;20597;-63
2021/04/28 05:52:33;;;;;;;14.23;3.83;;;13.30;38.90;;;;;;5043099;28;20113;-64
2021/04/28 05:55:01;;;;;;;10.35;4.15;;;14.00;37.90;;;;;;5040496;28;20047;-64
2021/04/28 05:57:27;;;;;;;10.90;3.92;;;14.90;36.40;;;;;;5041320;28;20173;-64
2021/04/28 05:59:52;;;;;;;10.82;3.38;;;15.30;35.30;;;;;;5043068;28;20721;-64
2021/04/28 06:02:18;;;;;;;5.95;3.50;;;;;;;;;;5045218;28;20036;-64
2021/04/28 06:04:43;;;;;;;5.60;3.50;;;16.10;34.10;;;;;;5041635;28;20098;-63
2021/04/28 06:07:09;;;;;;;7.10;3.88;;;17.20;31.60;;;;;;5043076;28;20024;-64
2021/04/28 06:09:37;;;;;;;7.28;3.70;;;17.00;31.20;;;;;;5033603;28;20489;-64
2021/04/28 06:12:03;;;;;;;7.18;3.95;;;16.90;31.20;;;;;;5039733;28;20486;-64
2021/04/28 06:14:29;;;;;;;10.85;3.63;;;16.70;30.90;;;;;;5025387;28;20036;-64
2021/04/28 06:16:58;;;;;;;7.45;3.85;;;16.30;31.00;;;;;;5027575;28;20169;-64
2021/04/28 06:19:26;;;;;;;8.75;4.13;;;15.80;31.50;;;;;;5039406;28;20169;-64
2021/04/28 06:21:54;;;;;;;4.78;3.83;;;15.40;32.10;;;;;;5040161;28;20871;-63
2021/04/28 06:24:19;;;;;;;6.40;3.85;;;15.00;32.40;;;;;;5039785;28;20661;-64
2021/04/28 06:26:46;;;;;;;6.97;3.92;;;14.70;32.90;;;;;;5042269;28;20044;-64
2021/04/28 06:29:14;;;;;;;6.60;3.92;;;14.40;33.50;;;;;;5041754;28;20583;-64
2021/04/28 06:31:39;;;;;;;6.97;3.92;;;14.20;33.90;;;;;;5021626;28;20067;-64
2021/04/28 06:34:05;;;;;;;7.05;4.03;;;14.10;34.50;;;;;;5038704;28;20036;-64
2021/04/28 06:36:33;;;;;;;8.10;4.65;;;14.00;34.40;;;;;;5020783;28;20125;-64
2021/04/28 06:39:01;;;;;;;10.85;4.00;;;13.90;34.50;;;;;;5039935;28;20033;-64
2021/04/28 06:41:31;;;;;;;8.88;4.10;;;13.70;34.70;;;;;;5034540;28;20123;-64
2021/04/28 06:44:01;;;;;;;7.18;4.20;;;13.60;35.10;;;;;;5037383;28;20040;-64
2021/04/28 06:46:27;;;;;;;5.93;4.07;;;13.50;35.80;;;;;;5040813;28;20032;-64
2021/04/28 06:48:55;;;;;;;9.43;3.90;;;13.50;35.90;;;;;;5038916;28;20907;-64
2021/04/28 06:51:23;;;;;;;11.60;4.28;;;13.60;36.10;;;;;;5025220;28;20047;-64
2021/04/28 06:53:52;;;;;;;9.43;5.10;;;13.60;35.90;;;;;;5062743;28;20050;-64
2021/04/28 06:56:18;;;;;;;11.52;4.57;;;13.60;35.80;;;;;;5069166;28;20032;-64
2021/04/28 06:58:45;;;;;;;11.70;4.82;;;13.50;35.90;;;;;;5052420;28;20044;-64
2021/04/28 07:01:11;;;;;;;9.23;4.65;;;13.50;35.50;;;;;;5046514;28;20514;-63
2021/04/28 07:03:38;;;;;;;10.55;5.28;;;13.60;35.50;;;;;;5058085;28;20973;-64
2021/04/28 07:06:06;;;;;;;7.72;4.97;;;14.00;35.10;;;;;;5050580;28;20044;-64
2021/04/28 07:08:34;;;;;;;14.45;5.10;;;14.70;34.90;;;;;;5051737;28;20102;-64
2021/04/28 07:11:01;;;;;;;7.45;4.63;;;15.60;33.80;;;;;;5054500;28;20032;-65
2021/04/28 07:13:27;;;;;;;8.25;4.68;;;16.80;32.50;;;;;;5050614;28;20044;-65
2021/04/28 07:15:52;;;;;;;6.60;4.32;;;18.30;30.70;;;;;;5048882;28;20039;-64
2021/04/28 07:18:21;;;;;;;7.72;4.93;;;19.70;29.10;;;;;;5050782;28;20230;-64
2021/04/28 07:20:46;;;;;;;7.40;4.85;;;22.00;27.40;;;;;;5062791;28;20043;-65
2021/04/28 07:23:12;;;;;;;9.45;4.70;;;;;;;;;;5039609;28;20040;-64
2021/04/28 07:25:40;;;;;;;6.82;4.63;;;22.20;26.00;;;;;;5062432;28;20101;-64
2021/04/28 07:28:06;;;;;;;9.80;4.72;;;24.20;23.50;;;;;;5066538;28;20036;-65
2021/04/28 07:30:34;;;;;;;8.73;4.88;;;25.10;22.70;;;;;;5065551;28;20043;-65
2021/04/28 07:33:00;;;;;;;7.47;5.28;;;25.90;21.80;;;;;;5046760;28;20147;-64
2021/04/28 07:35:25;;;;;;;9.77;5.22;;;26.60;21.10;;;;;;5060140;28;20851;-65
2021/04/28 07:37:54;;;;;;;11.88;5.18;;;27.20;20.30;;;;;;5057452;28;20052;-65
2021/04/28 07:40:21;;;;;;;9.57;4.47;;;27.60;19.70;;;;;;5060643;28;20032;-65
2021/04/28 07:42:49;;;;;;;11.98;5.38;;;27.80;19.40;;;;;;5052509;28;20105;-65
2021/04/28 07:45:16;;;;;;;7.45;4.80;;;;;;;;;;5057741;28;20040;-64
2021/04/28 07:47:42;;;;;;;9.43;4.82;;;;;;;;;;5068144;28;20063;-65
2021/04/28 07:50:08;;;;;;;7.88;4.90;;;;;;;;;;5061240;28;20040;-65
2021/04/28 07:52:34;;;;;;;11.25;4.65;;;;;;;;;;5064557;28;20036;-65
2021/04/28 07:55:02;;;;;;;8.35;5.10;;;;;;;;;;5057885;28;20051;-65
2021/04/28 07:57:28;;;;;;;9.00;5.10;;;28.10;18.60;;;;;;5066369;28;20039;-65
2021/04/28 07:59:58;;;;;;;7.68;4.93;;;31.60;16.90;;;;;;5064578;28;20052;-64
2021/04/28 08:02:23;;;;;;;8.00;4.88;;;31.40;16.30;;;;;;5051630;28;20129;-65
2021/04/28 08:04:49;;;;;;;9.48;4.68;;;31.60;16.70;;;;;;5047017;28;21489;-65
2021/04/28 08:07:14;;;;;;;8.50;5.18;;;31.70;16.40;;;;;;5064579;28;21205;-65
2021/04/28 08:09:41;;;;;;;11.80;5.07;;;31.80;16.00;;;;;;5066043;28;20437;-65
2021/04/28 08:12:07;;;;;;;6.57;4.68;;;31.80;16.20;;;;;;5061996;28;20032;-65
2021/04/28 08:14:33;;;;;;;7.32;4.55;;;32.00;16.20;;;;;;5058578;28;20033;-65
2021/04/28 08:16:59;;;;;;;9.93;4.82;;;32.10;16.20;;;;;;5061699;28;20034;-65
2021/04/28 08:19:25;;;;;;;8.00;4.97;;;32.40;15.70;;;;;;5063495;28;20599;-65
2021/04/28 08:21:54;;;;;;;12.32;5.25;;;32.80;15.40;;;;;;5062207;28;20039;-65
2021/04/28 08:24:21;;;;;;;7.70;4.70;;;33.00;15.10;;;;;;5062479;28;20071;-65
2021/04/28 08:26:47;;;;;;;8.75;5.03;;;33.00;15.20;;;;;;5059869;28;20036;-65
2021/04/28 08:29:13;;;;;;;7.13;4.78;;;33.00;14.70;;;;;;5062128;28;20070;-65
2021/04/28 08:31:41;;;;;;;7.90;5.05;;;32.90;14.70;;;;;;5061780;28;20514;-65
2021/04/28 08:34:07;;;;;;;8.52;5.15;;;32.70;14.70;;;;;;5060675;28;20043;-65
2021/04/28 08:36:36;;;;;;;9.15;5.38;;;32.60;15.10;;;;;;5061843;28;20059;-65
2021/04/28 08:39:06;;;;;;;6.93;5.03;;;;;;;;;;5066325;28;20047;-65
2021/04/28 08:41:32;;;;;;;7.82;5.20;;;32.50;14.90;;;;;;5063115;28;20209;-65
2021/04/28 08:44:02;;;;;;;8.05;6.03;;;32.70;15.60;;;;;;5063064;28;20044;-66
2021/04/28 08:46:27;;;;;;;9.05;5.45;;;33.20;14.80;;;;;;5061168;28;20086;-65
2021/04/28 08:48:53;;;;;;;11.77;5.18;;;33.50;14.40;;;;;;5062726;28;20032;-65
2021/04/28 08:51:19;;;;;;;7.82;5.45;;;;;;;;;;5061564;28;20073;-66
2021/04/28 08:53:48;;;;;;;7.72;5.28;;;;;;;;;;5058973;28;20550;-65
2021/04/28 08:56:13;;;;;;;8.60;5.18;;;33.80;14.60;;;;;;5065875;28;20421;-65
2021/04/28 08:58:39;;;;;;;10.98;4.88;;;33.50;14.70;;;;;;5065691;28;20036;-65
2021/04/28 09:01:07;;;;;;;10.50;5.05;;;33.70;14.20;;;;;;5062512;28;20036;-65
2021/04/28 09:03:41;;;;;;;10.07;5.40;;;33.80;14.00;;;;;;5041878;28;20819;-65
2021/04/28 09:06:27;;;;;;;6.80;5.30;;;33.90;13.70;;;;;;5043426;28;21036;-65
2021/04/28 09:08:53;;;;;;;9.55;5.28;;;33.70;13.60;;;;;;5040614;28;20049;-65
2021/04/28 09:11:48;;;;;;;8.07;5.55;;;33.50;13.80;;;;;;5034310;28;20041;-65
2021/04/28 09:14:21;;;;;;;11.65;5.20;;;33.50;13.80;;;;;;5045491;28;20059;-65
2021/04/28 09:17:00;;;;;;;7.30;5.32;;;33.60;14.00;;;;;;5034684;28;20045;-65
2021/04/28 09:19:31;;;;;;;12.80;5.85;;;33.80;13.70;;;;;;5032534;28;20551;-65
2021/04/28 09:22:04;;;;;;;9.57;5.28;;;34.00;13.80;;;;;;5038523;28;20036;-65
2021/04/28 09:24:36;;;;;;;7.07;5.05;;;34.20;14.10;;;;;;5031291;28;20036;-65
2021/04/28 09:27:04;;;;;;;7.28;5.55;;;34.30;14.40;;;;;;5048057;28;20094;-65
2021/04/28 09:29:32;;;;;;;9.57;5.32;;;34.30;13.80;;;;;;5037914;28;20067;-65
2021/04/28 09:32:03;;;;;;;7.75;5.07;;;34.10;13.70;;;;;;5036355;28;20815;-65
2021/04/28 09:34:35;;;;;;;8.65;5.30;;;34.10;13.90;;;;;;5048616;28;20174;-65
2021/04/28 09:37:13;;;;;;;14.35;5.45;;;34.20;14.60;;;;;;5048596;28;20086;-65
2021/04/28 09:39:49;;;;;;;12.50;5.38;;;34.50;13.90;;;;;;5050226;28;20039;-65
2021/04/28 09:42:17;;;;;;;7.32;4.88;;;34.60;13.60;;;;;;5044929;28;20109;-65
2021/04/28 09:44:49;;;;;;;9.20;5.53;;;34.50;13.20;;;;;;5036889;28;20105;-65
2021/04/28 09:47:22;;;;;;;10.13;6.05;;;34.60;13.30;;;;;;5033251;28;20401;-66
2021/04/28 09:49:58;;;;;;;10.75;5.55;;;34.90;13.40;;;;;;5020838;28;20127;-65
2021/04/28 09:52:31;;;;;;;10.68;5.68;;;;;;;;;;5044167;28;21292;-66
2021/04/28 09:55:01;;;;;;;7.55;5.60;;;;;;;;;;5041569;28;20162;-66
2021/04/28 09:57:56;;;;;;;8.48;5.63;;;;;;;;;;5045250;28;21863;-65
2021/04/28 10:00:27;;;;;;;7.82;5.60;;;;;;;;;;5026015;28;20036;-65
2021/04/28 10:03:00;;;;;;;10.13;5.47;;;;;;;;;;5040280;28;20549;-65
2021/04/28 10:05:27;;;;;;;6.95;5.10;;;;;;;;;;5035937;28;20064;-65
2021/04/28 10:08:07;;;;;;;7.90;5.95;;;;;;;;;;5037511;28;20063;-65
2021/04/28 10:10:36;;;;;;;9.52;6.22;;;;;;;;;;5038006;28;20067;-65
2021/04/28 10:13:02;;;;;;;12.63;5.97;;;;;;;;;;5040422;28;20044;-64
2021/04/28 10:15:28;;;;;;;12.15;5.72;;;;;;;;;;5038548;28;23109;-65
2021/04/28 10:17:55;;;;;;;7.40;5.65;;;;;;;;;;5022549;28;20509;-65
2021/04/28 10:20:21;;;;;;;10.05;5.72;;;;;;;;;;5038162;28;20051;-64
2021/04/28 10:22:53;;;;;;;6.93;6.10;;;;;;;;;;5037351;28;20047;-65
2021/04/28 10:25:19;;;;;;;8.77;5.97;;;;;;;;;;5035681;28;20036;-65
2021/04/28 10:27:45;;;;;;;6.85;5.85;;;;;;;;;;5037416;28;20897;-66
2021/04/28 10:30:14;;;;;;;9.82;6.30;;;;;;;;;;5035839;28;20036;-64
2021/04/28 10:32:42;;;;;;;8.68;6.30;;;;;;;;;;5037593;28;21068;-65
2021/04/28 10:35:09;;;;;;;10.32;6.57;;;;;;;;;;5030514;28;20036;-65
2021/04/28 10:37:36;;;;;;;8.20;6.03;;;;;;;;;;5020369;28;20037;-66
2021/04/28 10:40:11;;;;;;;15.02;6.35;;;;;;;;;;5037915;28;20128;-65
2021/04/28 10:42:38;;;;;;;7.50;6.53;;;;;;;;;;5035051;28;20044;-65
2021/04/28 10:45:08;;;;;;;9.60;6.22;;;;;;;;;;5036665;28;20606;-65
2021/04/28 10:47:39;;;;;;;11.98;6.75;;;;;;;;;;5042344;28;20059;-65
2021/04/28 10:50:05;;;;;;;10.13;6.95;;;;;;;;;;5034896;28;20036;-65
2021/04/28 10:52:42;;;;;;;8.10;6.75;;;;;;;;;;5015630;28;20043;-65
2021/04/28 10:55:28;;;;;;;11.70;6.70;;;;;;;;;;5015918;28;20154;-65
2021/04/28 10:57:53;;;;;;;11.48;7.55;;;;;;;;;;5042547;28;20048;-65
2021/04/28 11:00:22;;;;;;;11.60;6.72;;;;;;;;;;5036808;28;20146;-65
2021/04/28 11:02:48;;;;;;;10.10;7.13;;;;;;;;;;5020458;28;20622;-65
2021/04/28 11:05:28;;;;;;;10.15;7.03;;;;;;;;;;5038640;28;20044;-65
2021/04/28 11:07:57;;;;;;;11.35;7.50;;;;;;;;;;5034749;28;20737;-65
2021/04/28 11:10:25;;;;;;;10.48;7.15;;;;;;;;;;5033660;28;20620;-64
2021/04/28 11:13:04;;;;;;;11.02;7.78;;;;;;;;;;5039710;28;20036;-64
2021/04/28 11:15:53;;;;;;;11.38;7.53;;;35.20;13.80;;;;;;5054257;28;20033;-65
2021/04/28 11:18:38;;;;;;;16.98;7.97;;;31.40;16.40;;;;;;5069352;28;20043;-64
2021/04/28 11:21:18;;;;;;;11.45;7.35;;;30.80;16.10;;;;;;5069858;28;20051;-65
2021/04/28 11:24:04;;;;;;;12.35;7.85;;;30.30;16.50;;;;;;5063768;28;20043;-64
2021/04/28 11:26:30;;;;;;;13.48;8.23;;;29.80;16.90;;;;;;5035478;28;20043;-64
2021/04/28 11:28:57;;;;;;;14.50;7.63;;;29.40;18.00;;;;;;5018610;28;20147;-64
2021/04/28 11:31:42;;;;;;;11.07;7.88;;;29.00;17.80;;;;;;5011552;28;20063;-65
2021/04/28 11:34:32;;;;;;;12.43;8.30;;;28.70;18.20;;;;;;5046218;28;20040;-64
2021/04/28 11:36:59;;;;;;;12.18;7.70;;;28.30;18.10;;;;;;5044497;28;20157;-65
2021/04/28 11:39:37;;;;;;;12.77;7.82;;;27.90;18.40;;;;;;5036326;28;20070;-64
2021/04/28 11:42:11;;;;;;;12.18;7.88;;;27.60;18.60;;;;;;5037072;28;20047;-64
2021/04/28 11:44:57;;;;;;;14.48;8.40;;;27.40;18.50;;;;;;5030648;28;20044;-64
2021/04/28 11:47:28;;;;;;;9.32;7.97;;;27.30;19.20;;;;;;5038759;28;20062;-64
2021/04/28 11:49:57;;;;;;;12.48;8.23;;;27.30;19.50;;;;;;5039301;28;21387;-65
2021/04/28 11:52:25;;;;;;;12.05;7.88;;;27.30;19.20;;;;;;5032384;28;20062;-64
2021/04/28 11:54:58;;;;;;;13.02;8.52;;;27.20;19.40;;;;;;5034282;28;20032;-64
2021/04/28 11:57:31;;;;;;;18.08;8.55;;;27.20;19.00;;;;;;5036714;28;20555;-64
2021/04/28 12:00:08;;;;;;;12.93;8.60;;;27.10;18.40;;;;;;5036468;28;22297;-64
2021/04/28 12:02:36;;;;;;;11.85;8.05;;;26.90;18.50;;;;;;5015481;28;20027;-64
2021/04/28 12:05:05;;;;;;;11.32;8.10;;;26.70;18.60;;;;;;5017283;28;20670;-64
2021/04/28 12:07:32;;;;;;;16.13;8.73;;;26.60;19.00;;;;;;5012386;28;20913;-64
2021/04/28 12:10:00;;;;;;;11.93;7.68;;;26.60;19.30;;;;;;5022755;28;20341;-65
2021/04/28 12:12:29;;;;;;;15.70;8.43;;;26.60;19.20;;;;;;5019846;28;20040;-64
2021/04/28 12:15:14;;;;;;;13.52;8.95;;;26.70;18.80;;;;;;5028882;28;20801;-64
2021/04/28 12:17:45;;;;;;;16.23;8.10;;;26.60;19.30;;;;;;5039137;28;20032;-64
2021/04/28 12:20:18;;;;;;;15.35;8.88;;;26.60;19.10;;;;;;5034493;28;20067;-64
2021/04/28 12:22:43;;;;;;;11.93;8.43;;;26.60;18.60;;;;;;5038972;28;20047;-64
2021/04/28 12:25:11;;;;;;;12.85;8.60;;;26.60;18.90;;;;;;5017244;28;20041;-64
2021/04/28 12:27:41;;;;;;;9.15;7.78;;;26.60;18.80;;;;;;5033637;28;20482;-64
2021/04/28 12:30:29;;;;;;;14.90;9.30;;;26.60;18.80;;;;;;5037742;28;20036;-64
2021/04/28 12:32:57;;;;;;;11.85;8.35;;;26.60;18.90;;;;;;5019728;28;21984;-64
2021/04/28 12:35:25;;;;;;;20.02;8.85;;;26.60;19.80;;;;;;5023238;28;20050;-64
2021/04/28 12:38:04;;;;;;;15.50;9.68;;;26.70;19.20;;;;;;5025326;28;20084;-64
2021/04/28 12:40:41;;;;;;;12.90;8.43;;;26.60;18.90;;;;;;5040689;28;20123;-64
2021/04/28 12:43:10;;;;;;;17.42;9.25;;;26.60;19.10;;;;;;5028730;28;20105;-64
2021/04/28 12:45:37;;;;;;;18.65;9.50;;;26.60;19.50;;;;;;5008532;28;20127;-63
2021/04/28 12:48:18;;;;;;;13.70;9.00;;;26.70;19.90;;;;;;5039631;28;24157;-64
2021/04/28 12:50:48;;;;;;;15.90;9.85;;;26.80;19.50;;;;;;5031494;28;20039;-65
2021/04/28 12:53:18;;;;;;;14.77;10.32;;;26.90;19.20;;;;;;5033512;28;20674;-64
2021/04/28 12:55:47;;;;;;;15.05;9.77;;;26.80;18.80;;;;;;5047323;28;20144;-64
2021/04/28 12:58:19;;;;;;;16.60;9.32;;;26.80;18.70;;;;;;5043688;28;20036;-65
2021/04/28 13:00:50;;;;;;;13.98;8.63;;;26.90;19.30;;;;;;5033117;28;20036;-64
2021/04/28 13:03:27;;;;;;;17.80;9.10;;;27.00;19.60;;;;;;5043181;28;20036;-64
2021/04/28 13:06:01;;;;;;;11.80;8.75;;;27.10;18.80;;;;;;5042193;28;20044;-64
2021/04/28 13:08:30;;;;;;;13.80;8.38;;;27.00;18.80;;;;;;5044473;28;20032;-64
2021/04/28 13:11:04;;;;;;;13.60;8.98;;;26.90;19.10;;;;;;5022781;28;20063;-64
2021/04/28 13:13:39;;;;;;;14.60;8.57;;;26.80;18.80;;;;;;5047787;28;20028;-64